Marshall, TX

12:23 AM CDT on September 20, 2017 (GMT -0500)
Harrison County

Weather History for KASL - April, 2013

Change the Weather History Date:

Friday, April 19, 2013

  Actual Average (KGGG) Record (KGGG)
Temperature  
Mean Temperature 47 °F -  
Max Temperature 57 °F 75 °F 93 °F (2011)
Min Temperature 37 °F 54 °F 36 °F (1953)
Degree Days  
Heating Degree Days 18    
Moisture  
Dew Point 32 °F    
Average Humidity 59    
Maximum Humidity 93    
Minimum Humidity 31    
Precipitation  
Precipitation 0.00 in - - ()
Sea Level Pressure  
Sea Level Pressure 30.19 in    
Wind  
Wind Speed 11 mph (WNW)    
Max Wind Speed 18 mph    
Max Gust Speed 25 mph    
Visibility 10 miles    
Events      
Averages and records for this station are not official NWS values.
T = Trace of Precipitation, MM = Missing Value Source: NWS Daily Summary

Daily Weather History Graph

Daily Weather History Graph

Search for Another Location

Airport or City:

Trip Planner

Search our weather history database for the weather conditions in past years. The results will help you decide how hot, cold, wet, or windy it might be!

Date:

Astronomy

Apr. 19, 2013 Rise Set
Actual Time 6:42 AM CDT 7:50 PM CDT
Civil Twilight 6:17 AM CDT 8:15 PM CDT
Nautical Twilight 5:47 AM CDT 8:45 PM CDT
Astronomical Twilight 5:16 AM CDT 9:17 PM CDT
Moon 1:55 PM CDT (4/19) 2:37 AM CDT (4/19)
Length of Visible Light 13h 58m
Length of Day
13h 07m
First Quarter, 62% of the Moon is Illuminated
Apr 19
First Quarter
Apr 25
Full
May 2
Last Quarter
May 9
New
May 17
First Quarter

Hourly Weather History & Observations

Time (CDT) Temp. Windchill Dew Point Humidity Pressure Visibility Wind Dir Wind Speed Gust Speed Precip Events Conditions
12:15 AM 44.6 °F 37.8 °F 33.8 °F 66% 30.11 in 10.0 mi NW 15.0 mph 21.9 mph N/A   Clear
12:35 AM 44.6 °F 38.4 °F 33.8 °F 66% 30.12 in 10.0 mi NW 12.7 mph 21.9 mph N/A   Clear
12:55 AM 44.6 °F 38.1 °F 33.8 °F 66% 30.12 in 10.0 mi WNW 13.8 mph 21.9 mph N/A   Clear
1:15 AM 44.6 °F 38.1 °F 33.8 °F 66% 30.12 in 10.0 mi NW 13.8 mph 19.6 mph N/A   Clear
1:55 AM 44.6 °F 38.4 °F 32.0 °F 61% 30.11 in 10.0 mi NW 12.7 mph 18.4 mph N/A   Clear
2:15 AM 44.6 °F 38.4 °F 33.8 °F 66% 30.11 in 10.0 mi NW 12.7 mph 17.3 mph N/A   Clear
2:35 AM 44.6 °F 39.7 °F 33.8 °F 66% 30.11 in 10.0 mi NW 9.2 mph - N/A   Clear
2:55 AM 42.8 °F 36.6 °F 32.0 °F 66% 30.11 in 10.0 mi NW 11.5 mph - N/A   Clear
3:15 AM 42.8 °F 36.2 °F 32.0 °F 66% 30.11 in 10.0 mi NW 12.7 mph 17.3 mph N/A   Clear
3:35 AM 42.8 °F 37.0 °F 32.0 °F 66% 30.13 in 10.0 mi NW 10.4 mph - N/A   Clear
3:55 AM 42.8 °F 38.0 °F 32.0 °F 66% 30.13 in 10.0 mi WNW 8.1 mph - N/A   Clear
4:15 AM 42.8 °F 37.0 °F 32.0 °F 66% 30.14 in 10.0 mi WNW 10.4 mph - N/A   Clear
4:35 AM 42.8 °F 38.6 °F 32.0 °F 66% 30.15 in 10.0 mi WNW 6.9 mph - N/A   Clear
4:55 AM 41.0 °F 36.4 °F 32.0 °F 70% 30.17 in 10.0 mi WNW 6.9 mph - N/A   Clear
5:15 AM 41.0 °F 36.4 °F 32.0 °F 70% 30.17 in 10.0 mi WNW 6.9 mph - N/A   Clear
5:35 AM 39.2 °F 35.0 °F 32.0 °F 75% 30.18 in 10.0 mi WNW 5.8 mph - N/A   Clear
5:55 AM 37.4 °F 30.8 °F 32.0 °F 81% 30.19 in 10.0 mi WNW 9.2 mph - N/A   Clear
6:15 AM 37.4 °F 30.8 °F 32.0 °F 81% 30.19 in 10.0 mi WNW 9.2 mph - N/A   Clear
6:35 AM 37.4 °F 30.8 °F 32.0 °F 81% 30.19 in 10.0 mi WNW 9.2 mph - N/A   Clear
6:55 AM 37.4 °F 30.8 °F 32.0 °F 81% 30.21 in 10.0 mi WNW 9.2 mph - N/A   Clear
7:15 AM 37.4 °F 31.4 °F 32.0 °F 81% 30.21 in 10.0 mi WNW 8.1 mph - N/A   Clear
7:35 AM 41.0 °F 37.1 °F 32.0 °F 70% 30.22 in 10.0 mi WNW 5.8 mph - N/A   Clear
7:55 AM 42.8 °F 37.5 °F 32.0 °F 66% 30.22 in 10.0 mi WNW 9.2 mph - N/A   Clear
8:15 AM 42.8 °F 37.0 °F 32.0 °F 66% 30.22 in 10.0 mi WNW 10.4 mph - N/A   Clear
8:35 AM 44.6 °F 39.2 °F 32.0 °F 61% 30.22 in 10.0 mi WNW 10.4 mph - N/A   Clear
8:55 AM 44.6 °F 39.2 °F 32.0 °F 61% 30.23 in 10.0 mi West 10.4 mph 18.4 mph N/A   Clear
9:15 AM 44.6 °F 38.8 °F 32.0 °F 61% 30.22 in 10.0 mi NW 11.5 mph 17.3 mph N/A   Clear
9:35 AM 44.6 °F 38.1 °F 32.0 °F 61% 30.23 in 10.0 mi NW 13.8 mph 19.6 mph N/A   Clear
9:55 AM 46.4 °F 40.1 °F 30.2 °F 53% 30.22 in 10.0 mi NW 15.0 mph 23.0 mph N/A   Clear
10:35 AM 48.2 °F - 30.2 °F 50% 30.23 in 10.0 mi WNW 18.4 mph 24.2 mph N/A   Clear
10:55 AM 50.0 °F - 30.2 °F 47% 30.23 in 10.0 mi NNW 15.0 mph 21.9 mph N/A   Clear
11:15 AM 50.0 °F - 28.4 °F 43% 30.24 in 10.0 mi NW 18.4 mph - N/A   Clear
11:35 AM 50.0 °F - 28.4 °F 43% 30.24 in 10.0 mi NW 15.0 mph 25.3 mph N/A   Clear
11:55 AM 50.0 °F - 28.4 °F 43% 30.24 in 10.0 mi NW 13.8 mph 20.7 mph N/A   Clear
12:15 PM 51.8 °F - 30.2 °F 44% 30.23 in 10.0 mi NW 16.1 mph 24.2 mph N/A   Clear
12:35 PM 51.8 °F - 28.4 °F 41% 30.23 in 10.0 mi NW 15.0 mph 24.2 mph N/A   Clear
12:55 PM 51.8 °F - 28.4 °F 41% 30.22 in 10.0 mi WNW 17.3 mph 23.0 mph N/A   Clear
1:15 PM 53.6 °F - 28.4 °F 38% 30.22 in 10.0 mi WNW 17.3 mph 24.2 mph N/A   Clear
1:35 PM 55.4 °F - 28.4 °F 36% 30.21 in 10.0 mi NW 15.0 mph 20.7 mph N/A   Clear
1:55 PM 55.4 °F - 28.4 °F 36% 30.21 in 10.0 mi NW 11.5 mph 21.9 mph N/A   Clear
2:15 PM 55.4 °F - 26.6 °F 33% 30.20 in 10.0 mi West 17.3 mph 21.9 mph N/A   Clear
2:35 PM 55.4 °F - 28.4 °F 36% 30.20 in 10.0 mi WNW 10.4 mph 20.7 mph N/A   Clear
2:55 PM 55.4 °F - 26.6 °F 33% 30.19 in 10.0 mi NW 17.3 mph 21.9 mph N/A   Clear
3:15 PM 55.4 °F - 28.4 °F 36% 30.19 in 10.0 mi WNW 13.8 mph 19.6 mph N/A   Clear
3:35 PM 55.4 °F - 28.4 °F 36% 30.17 in 10.0 mi WNW 10.4 mph 20.7 mph N/A   Clear
3:55 PM 55.4 °F - 28.4 °F 36% 30.17 in 10.0 mi WNW 15.0 mph 20.7 mph N/A   Clear
4:15 PM 55.4 °F - 26.6 °F 33% 30.17 in 10.0 mi WNW 11.5 mph 23.0 mph N/A   Clear
4:35 PM 57.2 °F - 28.4 °F 33% 30.16 in 10.0 mi NW 12.7 mph 18.4 mph N/A   Clear
4:55 PM 57.2 °F - 28.4 °F 33% 30.16 in 10.0 mi NW 13.8 mph 20.7 mph N/A   Clear
5:15 PM 57.2 °F - 28.4 °F 33% 30.17 in 10.0 mi WNW 15.0 mph 20.7 mph N/A   Clear
5:35 PM 57.2 °F - 26.6 °F 31% 30.17 in 10.0 mi West 11.5 mph 20.7 mph N/A   Clear
5:55 PM 57.2 °F - 28.4 °F 33% 30.16 in 10.0 mi NW 9.2 mph - N/A   Clear
6:15 PM 55.4 °F - 28.4 °F 36% 30.17 in 10.0 mi NW 11.5 mph - N/A   Clear
6:35 PM 55.4 °F - 28.4 °F 36% 30.17 in 10.0 mi WNW 9.2 mph - N/A   Clear
6:55 PM 55.4 °F - 28.4 °F 36% 30.17 in 10.0 mi NW 8.1 mph - N/A   Clear
7:15 PM 55.4 °F - 30.2 °F 38% 30.17 in 10.0 mi WNW 6.9 mph - N/A   Clear
7:35 PM 55.4 °F - 30.2 °F 38% 30.17 in 10.0 mi WNW 4.6 mph - N/A   Clear
7:55 PM 51.8 °F - 35.6 °F 54% 30.18 in 10.0 mi Calm Calm - N/A   Clear
8:15 PM 46.4 °F - 39.2 °F 76% 30.19 in 10.0 mi Calm Calm - N/A   Clear
8:35 PM 46.4 °F - 37.4 °F 71% 30.19 in 10.0 mi Calm Calm - N/A   Clear
8:55 PM 44.6 °F - 41.0 °F 87% 30.20 in 10.0 mi Calm Calm - N/A   Clear
9:15 PM 44.6 °F - 41.0 °F 87% 30.21 in 10.0 mi Calm Calm - N/A   Clear
9:35 PM 44.6 °F - 41.0 °F 87% 30.22 in 10.0 mi Calm Calm - N/A   Clear
9:55 PM 42.8 °F - 39.2 °F 87% 30.22 in 10.0 mi Calm Calm - N/A   Clear
10:15 PM 42.8 °F - 39.2 °F 87% 30.23 in 10.0 mi Calm Calm - N/A   Clear
10:35 PM 42.8 °F - 41.0 °F 93% 30.23 in 10.0 mi Calm Calm - N/A   Clear
10:55 PM 41.0 °F - 39.2 °F 93% 30.23 in 10.0 mi Calm Calm - N/A   Clear
11:15 PM 41.0 °F - 37.4 °F 87% 30.23 in 10.0 mi Calm Calm - N/A   Clear
11:35 PM 39.2 °F - 37.4 °F 93% 30.24 in 10.0 mi Calm Calm - N/A   Clear
11:55 PM 37.4 °F - 35.6 °F 93% 30.24 in 10.0 mi Calm Calm - N/A   Clear